createdAt,value
2023-05-13T00:00:19.797Z,100622.91
2023-05-13T00:02:25.370Z,100624.63
2023-05-13T00:04:30.715Z,100624.34
2023-05-13T00:06:36.292Z,100622.83
2023-05-13T00:08:41.771Z,100619.29
2023-05-13T00:10:46.905Z,100620.72
2023-05-13T00:12:52.120Z,100617.52
2023-05-13T00:14:57.178Z,100612.72
2023-05-13T00:17:02.349Z,100619.56
2023-05-13T00:19:07.788Z,100616.27
2023-05-13T00:21:13.182Z,100618.41
2023-05-13T00:23:18.342Z,100614.9
2023-05-13T00:25:23.480Z,100610.81
2023-05-13T00:27:28.499Z,100609.58
2023-05-13T00:29:33.585Z,100608.08
2023-05-13T00:31:39.073Z,100606.25
2023-05-13T00:33:44.222Z,100602.66
2023-05-13T00:35:49.304Z,100604.54
2023-05-13T00:37:54.398Z,100603.11
2023-05-13T00:39:59.484Z,100608.39
2023-05-13T00:42:04.666Z,100610.16
2023-05-13T00:44:09.811Z,100608.67
2023-05-13T00:46:17.516Z,100605.4
2023-05-13T00:48:22.678Z,100610.55
2023-05-13T00:50:27.778Z,100613.16
2023-05-13T00:52:32.840Z,100615.91
2023-05-13T00:54:38.259Z,100610.52
2023-05-13T00:56:43.358Z,100616.58
2023-05-13T00:58:48.417Z,100615.2
2023-05-13T01:00:53.677Z,100624.31
2023-05-13T01:02:59.158Z,100629.13
2023-05-13T01:05:04.543Z,100637.31
2023-05-13T01:07:09.684Z,100642.59
2023-05-13T01:09:14.903Z,100643.46
2023-05-13T01:11:20.019Z,100651.38
2023-05-13T01:13:25.066Z,100653.38
2023-05-13T01:15:30.252Z,100652.77
2023-05-13T01:17:35.459Z,100650.36
2023-05-13T01:19:40.595Z,100654.83
2023-05-13T01:21:45.687Z,100651.77
2023-05-13T01:23:50.807Z,100654.42
2023-05-13T01:25:56.424Z,100654.36
2023-05-13T01:28:01.537Z,100655.23
2023-05-13T01:30:06.645Z,100656.21
2023-05-13T01:32:11.701Z,100652.34
2023-05-13T01:34:16.972Z,100655.61
2023-05-13T01:36:22.231Z,100656.86
2023-05-13T01:38:27.283Z,100655.11
2023-05-13T01:40:34.865Z,100657.05
2023-05-13T01:42:40.468Z,100649.02
2023-05-13T01:44:45.545Z,100653.09
2023-05-13T01:46:51.120Z,100657.64
2023-05-13T01:48:56.325Z,100658
2023-05-13T01:51:01.413Z,100662.31
2023-05-13T01:53:06.741Z,100665.05
2023-05-13T01:55:11.815Z,100659.8
2023-05-13T01:57:16.916Z,100658.5
2023-05-13T01:59:21.994Z,100657.17
2023-05-13T02:01:27.153Z,100654.95
2023-05-13T02:03:32.479Z,100651.02
2023-05-13T02:05:37.733Z,100653.66
2023-05-13T02:07:42.935Z,100664.23
2023-05-13T02:09:48.012Z,100662.47
2023-05-13T02:11:53.189Z,100659.64
2023-05-13T02:13:58.268Z,100660.96
2023-05-13T02:16:03.451Z,100655.81
2023-05-13T02:18:09.156Z,100665.77
2023-05-13T02:20:14.378Z,100658.53
2023-05-13T02:22:19.571Z,100662.69
2023-05-13T02:24:24.845Z,100660.27
2023-05-13T02:26:29.941Z,100659.78
2023-05-13T02:28:35.073Z,100660.95
2023-05-13T02:30:40.148Z,100654.02
2023-05-13T02:32:45.482Z,100654.98
2023-05-13T02:34:50.776Z,100651.84
2023-05-13T02:36:55.929Z,100656.11
2023-05-13T02:39:01.018Z,100654.06
2023-05-13T02:41:06.110Z,100647.98
2023-05-13T02:43:11.195Z,100647.25
2023-05-13T02:45:16.233Z,100652.3
2023-05-13T02:47:21.350Z,100650.58
2023-05-13T02:49:33.565Z,100655.66
2023-05-13T02:51:38.625Z,100653.98
2023-05-13T02:53:43.732Z,100654.88
2023-05-13T02:55:48.885Z,100660.8
2023-05-13T02:57:54.042Z,100656.77
2023-05-13T02:59:59.123Z,100657.9
2023-05-13T03:02:04.361Z,100663.97
2023-05-13T03:04:09.528Z,100659.34
2023-05-13T03:06:14.651Z,100665.75
2023-05-13T03:08:19.870Z,100663.7
2023-05-13T03:10:25.051Z,100666.47
2023-05-13T03:12:30.100Z,100666.56
2023-05-13T03:14:35.169Z,100666.02
2023-05-13T03:16:40.387Z,100667.27
2023-05-13T03:18:45.687Z,100668.46
2023-05-13T03:20:50.970Z,100667.5
2023-05-13T03:22:56.105Z,100671.42
2023-05-13T03:25:01.321Z,100676.61
2023-05-13T03:27:06.522Z,100679.25
2023-05-13T03:29:11.568Z,100677.22
2023-05-13T03:31:16.818Z,100672.69
2023-05-13T03:33:21.988Z,100672.92
2023-05-13T03:35:27.116Z,100674.09
2023-05-13T03:37:32.152Z,100673.47
2023-05-13T03:39:37.326Z,100674.67
2023-05-13T03:41:42.540Z,100675.95
2023-05-13T03:43:47.564Z,100677.66
2023-05-13T03:45:52.852Z,100683.64
2023-05-13T03:47:58.472Z,100678.56
2023-05-13T03:50:03.696Z,100684.95
2023-05-13T03:52:08.908Z,100684.66
2023-05-13T03:54:13.993Z,100685.2
2023-05-13T03:56:19.290Z,100687.93
2023-05-13T03:58:24.324Z,100684.28
2023-05-13T04:00:29.399Z,100683.3
2023-05-13T04:02:34.736Z,100685.35
2023-05-13T04:04:40.190Z,100690.47
2023-05-13T04:06:45.534Z,100691.24
2023-05-13T04:08:50.571Z,100695.48
2023-05-13T04:10:55.684Z,100697.28
2023-05-13T04:13:00.772Z,100697.07
2023-05-13T04:15:05.831Z,100697.69
2023-05-13T04:17:11.174Z,100703.58
2023-05-13T04:19:16.644Z,100707.09
2023-05-13T04:21:24.549Z,100704.27
2023-05-13T04:23:29.678Z,100704.78
2023-05-13T04:25:34.904Z,100703.91
2023-05-13T04:27:40.090Z,100705.23
2023-05-13T04:29:45.181Z,100704.55
2023-05-13T04:31:50.957Z,100706.32
2023-05-13T04:33:56.169Z,100702.13
2023-05-13T04:36:01.238Z,100711.86
2023-05-13T04:38:06.337Z,100708.56
2023-05-13T04:40:11.440Z,100713.94
2023-05-13T04:42:16.516Z,100716.63
2023-05-13T04:44:21.604Z,100711.64
2023-05-13T04:46:27.009Z,100708.09
2023-05-13T04:48:32.916Z,100713.15
2023-05-13T04:50:39.687Z,100715.75
2023-05-13T04:52:45.565Z,100711.92
2023-05-13T04:54:50.817Z,100709.59
2023-05-13T04:56:55.841Z,100711.59
2023-05-13T04:59:00.914Z,100712.44
2023-05-13T05:01:06.071Z,100711.89
2023-05-13T05:03:11.350Z,100715.62
2023-05-13T05:05:19.515Z,100713
2023-05-13T05:07:24.612Z,100719.41
2023-05-13T05:09:29.736Z,100713.13
2023-05-13T05:11:34.849Z,100718.86
2023-05-13T05:13:39.924Z,100716.98
2023-05-13T05:15:45.043Z,100715.76
2023-05-13T05:17:50.396Z,100716.95
2023-05-13T05:19:55.646Z,100720.53
2023-05-13T05:22:00.725Z,100722.89
2023-05-13T05:24:05.800Z,100722.81
2023-05-13T05:26:13.359Z,100725.72
2023-05-13T05:28:18.577Z,100723.3
2023-05-13T05:30:24.280Z,100728.39
2023-05-13T05:32:29.591Z,100730.84
2023-05-13T05:34:34.747Z,100731.2
2023-05-13T05:36:39.970Z,100734.28
2023-05-13T05:38:45.039Z,100733.73
2023-05-13T05:40:50.150Z,100736.98
2023-05-13T05:42:55.277Z,100740.75
2023-05-13T05:45:00.320Z,100735.33
2023-05-13T05:47:05.390Z,100734.6
2023-05-13T05:49:10.685Z,100736.02
2023-05-13T05:51:15.769Z,100747.65
2023-05-13T05:53:20.948Z,100744.53
2023-05-13T05:55:26.029Z,100747.47
2023-05-13T05:57:31.066Z,100742.13
2023-05-13T05:59:36.357Z,100742.09
2023-05-13T06:01:41.394Z,100744.58
2023-05-13T06:03:46.728Z,100745.02
2023-05-13T06:05:52.148Z,100746.63
2023-05-13T06:07:57.346Z,100748.19
2023-05-13T06:10:02.525Z,100745.08
2023-05-13T06:12:08.883Z,100741.33
2023-05-13T06:14:13.974Z,100740.52
2023-05-13T06:16:19.639Z,100740.68
2023-05-13T06:18:25.049Z,100741.85
2023-05-13T06:20:30.268Z,100739.94
2023-05-13T06:22:35.433Z,100742.41
2023-05-13T06:24:40.627Z,100742.02
2023-05-13T06:26:45.823Z,100744.7
2023-05-13T06:28:51.468Z,100737.33
2023-05-13T06:30:56.929Z,100742.15
2023-05-13T06:33:03.638Z,100744.4
2023-05-13T06:35:08.742Z,100744.15
2023-05-13T06:37:13.805Z,100748.28
2023-05-13T06:39:18.812Z,100749.11
2023-05-13T06:41:23.816Z,100752.2
2023-05-13T06:43:28.819Z,100748.98
2023-05-13T06:45:33.864Z,100756.59
2023-05-13T06:47:38.993Z,100760.41
2023-05-13T06:49:44.117Z,100755.48
2023-05-13T06:51:49.184Z,100756.08
2023-05-13T06:53:54.337Z,100756.75
2023-05-13T06:55:59.372Z,100754.16
2023-05-13T06:58:04.453Z,100759.61
2023-05-13T07:00:09.627Z,100760.17
2023-05-13T07:02:14.848Z,100759.65
2023-05-13T07:04:20.127Z,100764.09
2023-05-13T07:06:25.689Z,100763.25
2023-05-13T07:08:30.800Z,100758.29
2023-05-13T07:10:35.860Z,100755.98
2023-05-13T07:12:41.112Z,100753.14
2023-05-13T07:14:46.215Z,100747.39
2023-05-13T07:16:51.498Z,100760.41
2023-05-13T07:18:56.846Z,100761.15
2023-05-13T07:21:02.104Z,100754.05
2023-05-13T07:23:07.292Z,100754
2023-05-13T07:25:12.368Z,100757.31
2023-05-13T07:27:17.522Z,100754.77
2023-05-13T07:29:22.617Z,100759.02
2023-05-13T07:31:30.076Z,100754.94
2023-05-13T07:33:35.309Z,100751.5
2023-05-13T07:35:40.639Z,100754.3
2023-05-13T07:37:45.888Z,100754.03
2023-05-13T07:39:51.055Z,100749.68
2023-05-13T07:41:56.153Z,100753.78
2023-05-13T07:44:01.269Z,100752.44
2023-05-13T07:46:06.340Z,100761.17
2023-05-13T07:48:11.565Z,100757.93
2023-05-13T07:50:16.776Z,100769.63
2023-05-13T07:52:21.918Z,100766.3
2023-05-13T07:54:27.025Z,100763.3
2023-05-13T07:56:32.184Z,100767.16
2023-05-13T07:58:37.361Z,100765.55
2023-05-13T08:00:42.452Z,100766.17
2023-05-13T08:02:47.707Z,100767.25
2023-05-13T08:04:52.972Z,100767.78
2023-05-13T08:06:58.359Z,100770.42
2023-05-13T08:09:03.578Z,100769.22
2023-05-13T08:11:08.642Z,100770
2023-05-13T08:13:13.844Z,100768.41
2023-05-13T08:15:19.171Z,100769.23
2023-05-13T08:17:24.799Z,100771.06
2023-05-13T08:19:29.999Z,100776.66
2023-05-13T08:21:36.256Z,100778.82
2023-05-13T08:23:46.692Z,100777.03
2023-05-13T08:25:51.875Z,100779.73
2023-05-13T08:27:56.975Z,100776.98
2023-05-13T08:30:02.185Z,100773.45
2023-05-13T08:32:07.469Z,100776.78
2023-05-13T08:34:12.758Z,100776.28
2023-05-13T08:36:17.819Z,100779.72
2023-05-13T08:38:23.018Z,100783.98
2023-05-13T08:40:28.200Z,100775.89
2023-05-13T08:42:33.398Z,100773.58
2023-05-13T08:44:38.461Z,100769.02
2023-05-13T08:46:43.535Z,100769.95
2023-05-13T08:48:48.739Z,100770.95
2023-05-13T08:50:53.828Z,100764
2023-05-13T08:52:59.113Z,100771.81
2023-05-13T08:55:04.417Z,100768.44
2023-05-13T08:57:09.508Z,100768.67
2023-05-13T08:59:14.676Z,100770.2
2023-05-13T09:01:19.914Z,100776.86
2023-05-13T09:03:25.078Z,100770.58
2023-05-13T09:05:30.436Z,100762.81
2023-05-13T09:07:36.252Z,100758.82
2023-05-13T09:09:41.295Z,100761.2
2023-05-13T09:11:46.386Z,100764.44
2023-05-13T09:13:51.452Z,100768.09
2023-05-13T09:15:56.810Z,100764.3
2023-05-13T09:18:02.151Z,100759.48
2023-05-13T09:20:07.473Z,100765.14
2023-05-13T09:22:12.654Z,100768.41
2023-05-13T09:24:17.701Z,100775.7
2023-05-13T09:26:22.934Z,100766.39
2023-05-13T09:28:28.084Z,100766.76
2023-05-13T09:30:33.128Z,100764.19
2023-05-13T09:32:38.366Z,100764.33
2023-05-13T09:34:43.578Z,100764.36
2023-05-13T09:36:51.285Z,100768.14
2023-05-13T09:38:56.477Z,100762.06
2023-05-13T09:41:01.603Z,100758.88
2023-05-13T09:43:06.737Z,100762.44
2023-05-13T09:45:11.851Z,100768.78
2023-05-13T09:47:17.669Z,100758.88
2023-05-13T09:49:22.806Z,100757.41
2023-05-13T09:51:27.928Z,100762.02
2023-05-13T09:53:33.037Z,100756.52
2023-05-13T09:55:38.368Z,100754.94
2023-05-13T09:57:43.615Z,100753.85
2023-05-13T09:59:48.743Z,100755.12
2023-05-13T10:01:54.012Z,100759.7
2023-05-13T10:03:59.268Z,100754.14
2023-05-13T10:06:04.948Z,100754.05
2023-05-13T10:08:10.032Z,100753.16
2023-05-13T10:10:15.240Z,100755.44
2023-05-13T10:12:20.330Z,100750.7
2023-05-13T10:14:25.453Z,100749.38
2023-05-13T10:21:48.398Z,100749.5
2023-05-13T10:23:53.538Z,100744
2023-05-13T10:25:58.842Z,100741.23
2023-05-13T10:28:03.863Z,100739.91
2023-05-13T10:30:08.958Z,100744.59
2023-05-13T10:32:14.189Z,100745.92
2023-05-13T10:34:19.397Z,100743.78
2023-05-13T10:36:24.799Z,100742.27
2023-05-13T10:38:29.886Z,100745.2
2023-05-13T10:40:36.087Z,100741.3
2023-05-13T10:42:41.292Z,100742.66
2023-05-13T10:44:46.409Z,100735.8
2023-05-13T10:46:52.110Z,100731.83
2023-05-13T10:48:57.419Z,100729.77
2023-05-13T10:51:02.466Z,100739.89
2023-05-13T10:53:07.545Z,100740.13
2023-05-13T10:55:13.037Z,100741.37
2023-05-13T10:57:19.558Z,100733.3
2023-05-13T10:59:25.078Z,100735.58
2023-05-13T11:01:30.233Z,100734.59
2023-05-13T11:03:35.789Z,100733.95
2023-05-13T11:05:41.361Z,100734.86
2023-05-13T11:07:46.551Z,100735.24
2023-05-13T11:09:51.825Z,100731.32
2023-05-13T11:11:56.926Z,100736.38
2023-05-13T11:14:01.996Z,100739.77
2023-05-13T11:16:07.160Z,100733.17
2023-05-13T11:18:12.424Z,100738.03
2023-05-13T11:20:17.608Z,100732.16
2023-05-13T11:22:22.785Z,100736.02
2023-05-13T11:24:28.077Z,100734.42
2023-05-13T11:26:33.160Z,100729.97
2023-05-13T11:28:38.295Z,100727.48
2023-05-13T11:30:43.847Z,100736.18
2023-05-13T11:32:49.044Z,100738.69
2023-05-13T11:34:54.248Z,100737.73
2023-05-13T11:36:59.350Z,100744.65
2023-05-13T11:39:04.455Z,100740.54
2023-05-13T11:41:09.620Z,100735.86
2023-05-13T11:43:14.780Z,100738.84
2023-05-13T11:45:20.035Z,100746.4
2023-05-13T11:47:25.918Z,100746.44
2023-05-13T11:49:31.120Z,100736.07
2023-05-13T11:51:36.377Z,100737.56
2023-05-13T11:53:41.691Z,100729.05
2023-05-13T11:55:46.767Z,100734.85
2023-05-13T11:57:51.974Z,100734.19
2023-05-13T11:59:57.122Z,100727.38
2023-05-13T12:02:02.472Z,100731.82
2023-05-13T12:04:07.677Z,100733.06
2023-05-13T12:06:12.767Z,100726.02
2023-05-13T12:08:18.078Z,100727.47
2023-05-13T12:10:23.303Z,100730.06
2023-05-13T12:12:28.610Z,100731.8
2023-05-13T12:14:33.747Z,100734.14
2023-05-13T12:16:39.035Z,100730.31
2023-05-13T12:18:44.365Z,100729.3
2023-05-13T12:20:49.638Z,100726.93
2023-05-13T12:22:54.778Z,100725.91
2023-05-13T12:24:59.987Z,100723.91
2023-05-13T12:27:05.168Z,100725.48
2023-05-13T12:29:11.575Z,100725.59
2023-05-13T12:31:17.866Z,100737.27
2023-05-13T12:33:23.257Z,100728.27
2023-05-13T12:35:28.365Z,100727.07
2023-05-13T12:37:33.539Z,100720.59
2023-05-13T12:39:38.772Z,100724.58
2023-05-13T12:41:43.908Z,100723.06
2023-05-13T12:43:48.972Z,100730.75
2023-05-13T12:45:54.115Z,100734.13
2023-05-13T12:47:59.396Z,100734.71
2023-05-13T12:50:04.698Z,100737.41
2023-05-13T12:52:09.813Z,100731.14
2023-05-13T12:54:14.996Z,100740.3
2023-05-13T12:56:20.210Z,100736.83
2023-05-13T12:58:25.305Z,100733.17
2023-05-13T13:00:30.465Z,100734.88
2023-05-13T13:02:35.777Z,100730.97
2023-05-13T13:04:41.332Z,100730.69
2023-05-13T13:06:46.430Z,100730.89
2023-05-13T13:08:51.564Z,100731.69
2023-05-13T13:10:56.745Z,100734.92
2023-05-13T13:13:01.921Z,100728.3
2023-05-13T13:15:07.031Z,100717.91
2023-05-13T13:17:12.062Z,100729.25
2023-05-13T13:19:17.343Z,100737.18
2023-05-13T13:21:22.818Z,100732.69
2023-05-13T13:23:28.036Z,100735.06
2023-05-13T13:25:33.192Z,100732.19
2023-05-13T13:27:38.876Z,100734.66
2023-05-13T13:29:43.970Z,100731.55
2023-05-13T13:31:49.136Z,100750.01
2023-05-13T13:33:54.420Z,100736.05
2023-05-13T13:35:59.653Z,100741.73
2023-05-13T13:38:04.772Z,100758.45
2023-05-13T13:40:09.885Z,100742.77
2023-05-13T13:42:15.038Z,100751.27
2023-05-13T13:44:20.298Z,100745.78
2023-05-13T13:46:25.564Z,100741.03
2023-05-13T13:48:30.843Z,100739.84
2023-05-13T13:50:36.048Z,100738.67
2023-05-13T13:52:41.251Z,100738.31
2023-05-13T13:54:46.462Z,100742.64
2023-05-13T13:56:51.523Z,100734.67
2023-05-13T13:58:56.663Z,100734.02
2023-05-13T14:01:03.130Z,100735.58
2023-05-13T14:03:08.517Z,100747.17
2023-05-13T14:05:13.956Z,100741.55
2023-05-13T14:07:19.116Z,100742.44
2023-05-13T14:09:24.461Z,100738.55
2023-05-13T14:11:29.539Z,100741.25
2023-05-13T14:13:34.598Z,100736.73
2023-05-13T14:15:39.743Z,100736.33
2023-05-13T14:17:45.239Z,100735.34
2023-05-13T14:19:50.456Z,100728.98
2023-05-13T14:21:55.536Z,100729.52
2023-05-13T14:24:00.713Z,100737.02
2023-05-13T14:26:05.774Z,100732.56
2023-05-13T14:28:10.885Z,100741.23
2023-05-13T14:30:16.095Z,100739.09
2023-05-13T14:32:21.312Z,100736.45
2023-05-13T14:34:26.471Z,100733.44
2023-05-13T14:36:31.698Z,100735.58
2023-05-13T14:38:36.824Z,100731.96
2023-05-13T14:40:41.970Z,100735.83
2023-05-13T14:42:47.071Z,100738.5
2023-05-13T14:44:52.279Z,100735.34
2023-05-13T14:46:57.717Z,100728.12
2023-05-13T14:49:02.961Z,100728.36
2023-05-13T14:51:08.137Z,100715.72
2023-05-13T14:53:13.237Z,100713.09
2023-05-13T14:55:18.298Z,100720.57
2023-05-13T14:57:23.436Z,100719.84
2023-05-13T14:59:28.559Z,100723.48
2023-05-13T15:01:34.000Z,100721.98
2023-05-13T15:03:39.506Z,100728.05
2023-05-13T15:05:45.588Z,100719.91
2023-05-13T15:07:50.809Z,100719.2
2023-05-13T15:09:55.984Z,100726.2
2023-05-13T15:12:01.216Z,100735.26
2023-05-13T15:14:06.314Z,100725.59
2023-05-13T15:16:11.459Z,100721.95
2023-05-13T15:18:16.660Z,100722.26
2023-05-13T15:20:22.110Z,100724.48
2023-05-13T15:22:27.796Z,100718.88
2023-05-13T15:24:32.928Z,100728.37
2023-05-13T15:26:37.991Z,100723.77
2023-05-13T15:28:43.204Z,100721.48
2023-05-13T15:30:48.537Z,100721.39
2023-05-13T15:32:54.026Z,100719.06
2023-05-13T15:34:59.157Z,100708.91
2023-05-13T15:37:04.260Z,100721.52
2023-05-13T15:39:09.492Z,100715.45
2023-05-13T15:41:14.556Z,100721.63
2023-05-13T15:43:19.621Z,100716.11
2023-05-13T15:45:24.893Z,100715.92
2023-05-13T15:47:30.342Z,100715.95
2023-05-13T15:49:35.762Z,100717.02
2023-05-13T15:51:40.967Z,100717.48
2023-05-13T15:53:46.057Z,100711.23
2023-05-13T15:55:51.327Z,100710.77
2023-05-13T15:57:56.516Z,100706.85
2023-05-13T16:00:01.668Z,100717.33
2023-05-13T16:02:06.839Z,100703.39
2023-05-13T16:04:12.228Z,100702.33
2023-05-13T16:06:17.534Z,100697.98
2023-05-13T16:08:22.628Z,100702.81
2023-05-13T16:10:27.644Z,100702.97
2023-05-13T16:12:32.619Z,100703.28
2023-05-13T16:14:37.763Z,100701.52
2023-05-13T16:16:42.965Z,100696.33
2023-05-13T16:18:48.287Z,100689.09
2023-05-13T16:20:53.512Z,100690.3
2023-05-13T16:22:58.594Z,100690.95
2023-05-13T16:25:03.733Z,100696.84
2023-05-13T16:27:09.293Z,100690.86
2023-05-13T16:29:14.345Z,100688.55
2023-05-13T16:31:19.545Z,100692.2
2023-05-13T16:33:24.970Z,100690.98
2023-05-13T16:35:30.049Z,100684.56
2023-05-13T16:37:35.299Z,100684.69
2023-05-13T16:39:40.427Z,100686.84
2023-05-13T16:41:45.697Z,100683.36
2023-05-13T16:43:50.914Z,100687.84
2023-05-13T16:45:56.132Z,100690.66
2023-05-13T16:48:01.610Z,100684.28
2023-05-13T16:50:06.800Z,100684.13
2023-05-13T16:52:11.928Z,100680.56
2023-05-13T16:54:17.315Z,100680.45
2023-05-13T16:56:22.322Z,100678.56
2023-05-13T16:58:27.335Z,100683.75
2023-05-13T17:00:32.444Z,100678.92
2023-05-13T17:02:37.733Z,100679.79
2023-05-13T17:04:43.305Z,100675.01
2023-05-13T17:06:48.524Z,100678.72
2023-05-13T17:08:53.716Z,100674.04
2023-05-13T17:10:59.009Z,100672.8
2023-05-13T17:13:04.349Z,100675.16
2023-05-13T17:15:09.581Z,100680.86
2023-05-13T17:17:14.797Z,100683.67
2023-05-13T17:19:20.101Z,100676.69
2023-05-13T17:21:25.404Z,100678.78
2023-05-13T17:23:30.608Z,100679.79
2023-05-13T17:25:35.701Z,100680.2
2023-05-13T17:27:41.911Z,100678.76
2023-05-13T17:29:47.008Z,100677.05
2023-05-13T17:31:52.239Z,100674.97
2023-05-13T17:33:57.414Z,100671.52
2023-05-13T17:36:02.533Z,100672.65
2023-05-13T17:38:07.564Z,100671.23
2023-05-13T17:40:12.632Z,100670.36
2023-05-13T17:42:17.715Z,100667.8
2023-05-13T17:44:22.783Z,100670.53
2023-05-13T17:46:28.026Z,100670.84
2023-05-13T17:48:33.498Z,100671.88
2023-05-13T17:50:38.754Z,100670.51
2023-05-13T17:52:43.855Z,100666.77
2023-05-13T17:54:48.937Z,100665.87
2023-05-13T17:56:54.315Z,100670.59
2023-05-13T17:58:59.399Z,100671.47
2023-05-13T18:01:04.589Z,100669.09
2023-05-13T18:03:09.944Z,100670.02
2023-05-13T18:05:15.275Z,100676.38
2023-05-13T18:07:20.615Z,100672.89
2023-05-13T18:09:25.806Z,100671
2023-05-13T18:11:30.971Z,100675.06
2023-05-13T18:13:36.158Z,100682.81
2023-05-13T18:15:41.338Z,100681.14
2023-05-13T18:17:46.805Z,100673.45
2023-05-13T18:19:52.200Z,100676.2
2023-05-13T18:21:57.308Z,100676.34
2023-05-13T18:24:02.446Z,100679.82
2023-05-13T18:26:07.585Z,100681.27
2023-05-13T18:28:12.984Z,100682.88
2023-05-13T18:30:18.135Z,100684.27
2023-05-13T18:32:23.478Z,100683.97
2023-05-13T18:34:28.650Z,100682.64
2023-05-13T18:36:33.775Z,100687.44
2023-05-13T18:38:39.006Z,100690.19
2023-05-13T18:40:44.125Z,100689.44
2023-05-13T18:42:49.215Z,100691.22
2023-05-13T18:44:54.291Z,100695.55
2023-05-13T18:46:59.444Z,100705.77
2023-05-13T18:49:04.593Z,100703.98
2023-05-13T18:51:09.813Z,100706.48
2023-05-13T18:53:14.906Z,100709.16
2023-05-13T18:55:20.186Z,100710.78
2023-05-13T18:57:25.292Z,100715.27
2023-05-13T18:59:30.450Z,100709.69
2023-05-13T19:01:35.634Z,100711.88
2023-05-13T19:03:41.235Z,100713.08
2023-05-13T19:05:46.679Z,100714.42
2023-05-13T19:07:51.894Z,100716.11
2023-05-13T19:09:57.027Z,100717.53
2023-05-13T19:12:02.270Z,100719.53
2023-05-13T19:14:07.397Z,100720.69
2023-05-13T19:16:12.551Z,100720.72
2023-05-13T19:18:17.815Z,100721.61
2023-05-13T19:20:23.604Z,100719.83
2023-05-13T19:22:28.775Z,100718.24
2023-05-13T19:24:33.816Z,100718.09
2023-05-13T19:26:38.857Z,100719.48
2023-05-13T19:28:43.930Z,100721.66
2023-05-13T19:30:49.231Z,100722.09
2023-05-13T19:32:54.505Z,100728.91
2023-05-13T19:34:59.790Z,100726.53
2023-05-13T19:37:05.025Z,100725.28
2023-05-13T19:39:10.118Z,100726.42
2023-05-13T19:41:15.210Z,100728.47
2023-05-13T19:43:20.462Z,100724.22
2023-05-13T19:45:25.560Z,100730.91
2023-05-13T19:47:30.870Z,100734.54
2023-05-13T19:49:36.192Z,100732.69
2023-05-13T19:51:41.479Z,100732.23
2023-05-13T19:53:46.626Z,100737.67
2023-05-13T19:55:51.799Z,100735.24
2023-05-13T19:57:56.900Z,100736.8
2023-05-13T20:00:02.093Z,100735.63
2023-05-13T20:02:07.341Z,100737.52
2023-05-13T20:04:13.097Z,100733.14
2023-05-13T20:06:18.335Z,100735.33
2023-05-13T20:08:23.419Z,100726.03
2023-05-13T20:10:28.678Z,100731.36
2023-05-13T20:12:33.738Z,100731.25
2023-05-13T20:14:38.924Z,100728.7
2023-05-13T20:16:44.174Z,100734.36
2023-05-13T20:18:49.498Z,100731.26
2023-05-13T20:20:54.724Z,100729.38
2023-05-13T20:22:59.833Z,100730.59
2023-05-13T20:25:05.080Z,100726.8
2023-05-13T20:27:10.254Z,100723.98
2023-05-13T20:29:15.341Z,100724.47
2023-05-13T20:31:20.493Z,100723.48
2023-05-13T20:33:25.626Z,100725.27
2023-05-13T20:35:30.803Z,100722.09
2023-05-13T20:37:36.426Z,100722.34
2023-05-13T20:39:41.508Z,100724.66
2023-05-13T20:41:46.664Z,100721.92
2023-05-13T20:43:51.811Z,100721.94
2023-05-13T20:45:57.077Z,100719.38
2023-05-13T20:48:02.311Z,100720.56
2023-05-13T20:50:07.470Z,100718.5
2023-05-13T20:52:12.864Z,100717.97
2023-05-13T20:54:17.952Z,100720.19
2023-05-13T20:56:22.994Z,100720.7
2023-05-13T20:58:28.039Z,100718.75
2023-05-13T21:00:33.170Z,100716.5
2023-05-13T21:02:38.425Z,100718.36
2023-05-13T21:04:43.604Z,100711.72
2023-05-13T21:06:48.682Z,100716.56
2023-05-13T21:08:54.155Z,100713.49
2023-05-13T21:10:59.233Z,100720.99
2023-05-13T21:13:04.354Z,100713.32
2023-05-13T21:15:09.402Z,100711.81
2023-05-13T21:17:16.401Z,100714.48
2023-05-13T21:19:21.462Z,100718.43
2023-05-13T21:21:26.665Z,100716.95
2023-05-13T21:23:31.800Z,100716.34
2023-05-13T21:25:37.002Z,100716.05
2023-05-13T21:27:42.178Z,100718.98
2023-05-13T21:29:47.297Z,100712.91
2023-05-13T21:31:52.383Z,100717.23
2023-05-13T21:33:57.462Z,100719.48
2023-05-13T21:36:02.632Z,100716.93
2023-05-13T21:38:13.752Z,100717.16
2023-05-13T21:40:18.846Z,100716.36
2023-05-13T21:42:23.942Z,100714.81
2023-05-13T21:44:29.043Z,100715.41
2023-05-13T21:46:34.298Z,100711.63
2023-05-13T21:48:39.512Z,100706.91
2023-05-13T21:50:44.858Z,100710.09
2023-05-13T21:52:49.960Z,100706.09
2023-05-13T21:54:55.055Z,100708.72
2023-05-13T21:57:00.189Z,100705.36
2023-05-13T21:59:05.277Z,100704.75
2023-05-13T22:01:10.578Z,100707.48
2023-05-13T22:03:15.891Z,100703.22
2023-05-13T22:05:21.201Z,100709.95
2023-05-13T22:07:26.279Z,100708.75
2023-05-13T22:09:31.429Z,100712.88
2023-05-13T22:11:36.529Z,100712.98
2023-05-13T22:13:41.567Z,100713.11
2023-05-13T22:15:46.688Z,100711.2
2023-05-13T22:17:52.363Z,100710.5
2023-05-13T22:19:57.539Z,100709.39
2023-05-13T22:22:02.623Z,100716.03
2023-05-13T22:24:07.921Z,100710.77
2023-05-13T22:26:13.179Z,100704.91
2023-05-13T22:28:18.258Z,100708.61
2023-05-13T22:30:23.771Z,100707.8
2023-05-13T22:32:29.445Z,100703.94
2023-05-13T22:34:34.707Z,100706.84
2023-05-13T22:36:41.201Z,100703.94
2023-05-13T22:38:48.210Z,100696.86
2023-05-13T22:40:53.281Z,100695.5
2023-05-13T22:42:58.380Z,100694.79
2023-05-13T22:45:03.499Z,100685.82
2023-05-13T22:47:08.695Z,100689.56
2023-05-13T22:49:13.932Z,100689.88
2023-05-13T22:51:19.079Z,100689.78
2023-05-13T22:53:24.263Z,100693.39
2023-05-13T22:55:29.412Z,100695.92
2023-05-13T22:57:34.546Z,100695.86
2023-05-13T22:59:39.681Z,100694.67
2023-05-13T23:01:44.945Z,100699.23
2023-05-13T23:03:50.175Z,100697.09
2023-05-13T23:05:55.330Z,100692.08
2023-05-13T23:08:00.404Z,100688.53
2023-05-13T23:10:05.473Z,100687.89
2023-05-13T23:12:10.571Z,100689.17
2023-05-13T23:14:15.657Z,100690.16
2023-05-13T23:16:21.111Z,100688.88
2023-05-13T23:18:26.312Z,100687.12
2023-05-13T23:20:31.420Z,100690.34
2023-05-13T23:22:36.556Z,100687.06
2023-05-13T23:24:41.609Z,100687.55
2023-05-13T23:26:48.568Z,100686.66
2023-05-13T23:28:53.673Z,100684.83
2023-05-13T23:30:58.728Z,100686.27
2023-05-13T23:33:03.857Z,100682.21
2023-05-13T23:35:08.994Z,100685.53
2023-05-13T23:37:14.133Z,100683.97
2023-05-13T23:39:19.332Z,100677.89
2023-05-13T23:41:24.387Z,100675.75
2023-05-13T23:43:29.451Z,100677.97
2023-05-13T23:45:34.615Z,100686.42
2023-05-13T23:47:39.914Z,100687.28
2023-05-13T23:49:45.236Z,100680.23
2023-05-13T23:51:50.411Z,100674.81
2023-05-13T23:53:55.510Z,100672.41
2023-05-13T23:56:00.626Z,100674.34
2023-05-13T23:58:06.058Z,100672.09
